03 janeiro 2014

Férias de Natal

Este Natal as férias foram curtas e a meteorologia também não ajudou muito excepto para fotos de mau tempo! Deixo aqui a saída da lancha das 17 na véspera de Natal e o frio no sábado. Não podia faltar um pouco de spotting, para aprender a usar o tripé com zoom. A coisa ainda não está boa, vamos lá ver se melhora!
E já agora, Bom 2014!







6 comentários:

Anónimo disse...

Será que vai dar hoje para a TAP aterrar no Pico?

João disse...

Podes colocar o metar do Pico à hora que aterrou a TAP e a hora em que saiu do Pico, uma vez que este não está disponível na net?

Aterrou às 13:46 (Metar das 13h30 ou 14h00)
Levantou às 14:43 (Metar das 14h30 ou 15h)

Rui Medeiros disse...

Parece que deu, SATA também.

LPPI 041500Z 23033G45KT 200V260 9999 FEW012 SCT030 18/14 Q1015 RMK WIND RWY27 22030G45KT 190V250

LPPI 041600Z 23034G45KT 200V260 9999 FEW012 SCT030 18/14 Q1014
RMK WIND RWY27 22035G50KT 190V250

Nota: A hora dos METAR é UTC.

João disse...

Muito Obrigado Rui!

Anónimo disse...

Não ha vídeos do voo de 4 de janeiro da tap?? Deve ter sido péssimo. Entrei nesse voo na terceira e os pax do pico vinham aterrorizados!

Luis disse...

A TAP programou para a Páscoa 2 voos extra. Sendo que um deles escala volta a escalar a Terceira, no regresso a Lisboa. :(
Mas é normal isto acontecer Rui, pois o voo extra para o Pico que fizeram dia 2 de Janeiro, teve uma taxa de ocupação muito baixa 36% (LIS-PIX) e 60%(PIX-LIS). Até mudaram o equipamento do A320 para um A319. As pessoas queixam-se que não fazem voos para o Pico, e depois quando chega a hora da verdade querem ficar até aos últimos dias e depois vão pelo Faial.

Voos Páscoa 2014
Domingo, 13 Abril 2014
TP3905 08:45 LISBOA 10:25 PICO
directo
TP3905* 11:10 PICO 15:45 LISBOA
*1 paragem Terceira

2.ª Feira, 21 Abril 2014
TP3901 13:30 LISBOA 15:10 PICO
directo
TP3900 16:00 PICO 19:20 LISBOA
directo